sensor_id;sensor_type;location;lat;lon;timestamp;P1;durP1;ratioP1;P2;durP2;ratioP2
30380;SDS011;17169;50.966;11.038;2022-12-07T00:02:40;6.28;;;3.58;;
30380;SDS011;17169;50.966;11.038;2022-12-07T00:05:42;6.88;;;3.88;;
30380;SDS011;17169;50.966;11.038;2022-12-07T00:08:45;9.00;;;3.50;;
30380;SDS011;17169;50.966;11.038;2022-12-07T00:11:49;6.63;;;3.40;;
30380;SDS011;17169;50.966;11.038;2022-12-07T00:14:52;5.45;;;3.40;;
30380;SDS011;17169;50.966;11.038;2022-12-07T00:17:55;8.70;;;4.32;;
30380;SDS011;17169;50.966;11.038;2022-12-07T00:21:00;8.15;;;3.58;;
30380;SDS011;17169;50.966;11.038;2022-12-07T00:24:04;6.15;;;3.75;;
30380;SDS011;17169;50.966;11.038;2022-12-07T00:27:08;7.30;;;4.45;;
30380;SDS011;17169;50.966;11.038;2022-12-07T00:30:11;6.15;;;3.63;;
30380;SDS011;17169;50.966;11.038;2022-12-07T00:33:13;7.45;;;3.38;;
30380;SDS011;17169;50.966;11.038;2022-12-07T00:36:17;8.82;;;3.90;;
30380;SDS011;17169;50.966;11.038;2022-12-07T00:39:20;7.05;;;3.63;;
30380;SDS011;17169;50.966;11.038;2022-12-07T00:42:24;6.85;;;3.58;;
30380;SDS011;17169;50.966;11.038;2022-12-07T00:45:26;7.93;;;3.92;;
30380;SDS011;17169;50.966;11.038;2022-12-07T00:48:28;6.25;;;3.33;;
30380;SDS011;17169;50.966;11.038;2022-12-07T00:51:31;7.30;;;4.00;;
30380;SDS011;17169;50.966;11.038;2022-12-07T00:54:33;5.32;;;3.33;;
30380;SDS011;17169;50.966;11.038;2022-12-07T00:57:37;7.32;;;3.20;;
30380;SDS011;17169;50.966;11.038;2022-12-07T01:00:40;7.78;;;3.30;;
30380;SDS011;17169;50.966;11.038;2022-12-07T01:03:44;5.97;;;3.20;;
30380;SDS011;17169;50.966;11.038;2022-12-07T01:06:46;5.63;;;2.92;;
30380;SDS011;17169;50.966;11.038;2022-12-07T01:09:48;6.13;;;2.85;;
30380;SDS011;17169;50.966;11.038;2022-12-07T01:12:52;8.15;;;3.13;;
30380;SDS011;17169;50.966;11.038;2022-12-07T01:15:56;6.95;;;3.22;;
30380;SDS011;17169;50.966;11.038;2022-12-07T01:19:00;5.95;;;2.97;;
30380;SDS011;17169;50.966;11.038;2022-12-07T01:22:05;5.38;;;2.85;;
30380;SDS011;17169;50.966;11.038;2022-12-07T01:25:07;6.85;;;3.22;;
30380;SDS011;17169;50.966;11.038;2022-12-07T01:28:12;6.78;;;3.47;;
30380;SDS011;17169;50.966;11.038;2022-12-07T01:31:15;6.65;;;3.47;;
30380;SDS011;17169;50.966;11.038;2022-12-07T01:34:19;7.55;;;3.17;;
30380;SDS011;17169;50.966;11.038;2022-12-07T01:37:22;6.82;;;3.53;;
30380;SDS011;17169;50.966;11.038;2022-12-07T01:40:24;6.32;;;3.72;;
30380;SDS011;17169;50.966;11.038;2022-12-07T01:43:29;5.75;;;3.70;;
30380;SDS011;17169;50.966;11.038;2022-12-07T01:46:32;8.00;;;3.70;;
30380;SDS011;17169;50.966;11.038;2022-12-07T01:49:35;6.05;;;3.75;;
30380;SDS011;17169;50.966;11.038;2022-12-07T01:52:39;8.68;;;4.28;;
30380;SDS011;17169;50.966;11.038;2022-12-07T01:55:46;7.38;;;4.50;;
30380;SDS011;17169;50.966;11.038;2022-12-07T01:58:53;7.70;;;4.55;;
30380;SDS011;17169;50.966;11.038;2022-12-07T02:01:57;9.05;;;5.18;;
30380;SDS011;17169;50.966;11.038;2022-12-07T02:05:00;7.68;;;4.82;;
30380;SDS011;17169;50.966;11.038;2022-12-07T02:11:07;7.18;;;4.47;;
30380;SDS011;17169;50.966;11.038;2022-12-07T02:14:12;7.97;;;4.90;;
30380;SDS011;17169;50.966;11.038;2022-12-07T02:17:15;19.67;;;10.88;;
30380;SDS011;17169;50.966;11.038;2022-12-07T02:20:27;10.75;;;4.30;;
30380;SDS011;17169;50.966;11.038;2022-12-07T02:23:40;9.55;;;5.00;;
30380;SDS011;17169;50.966;11.038;2022-12-07T02:27:12;6.93;;;4.28;;
30380;SDS011;17169;50.966;11.038;2022-12-07T02:30:37;9.02;;;5.22;;
30380;SDS011;17169;50.966;11.038;2022-12-07T02:33:47;8.45;;;5.00;;
30380;SDS011;17169;50.966;11.038;2022-12-07T02:36:55;9.18;;;4.70;;
30380;SDS011;17169;50.966;11.038;2022-12-07T02:40:04;7.85;;;4.90;;
30380;SDS011;17169;50.966;11.038;2022-12-07T02:43:12;7.22;;;5.05;;
30380;SDS011;17169;50.966;11.038;2022-12-07T02:46:20;8.55;;;5.32;;
30380;SDS011;17169;50.966;11.038;2022-12-07T02:49:25;7.65;;;4.85;;
30380;SDS011;17169;50.966;11.038;2022-12-07T02:52:29;7.55;;;5.22;;
30380;SDS011;17169;50.966;11.038;2022-12-07T02:55:33;9.15;;;5.28;;
30380;SDS011;17169;50.966;11.038;2022-12-07T02:58:43;8.82;;;5.45;;
30380;SDS011;17169;50.966;11.038;2022-12-07T03:01:56;8.77;;;4.97;;
30380;SDS011;17169;50.966;11.038;2022-12-07T03:05:13;9.73;;;5.18;;
30380;SDS011;17169;50.966;11.038;2022-12-07T03:08:29;7.80;;;5.07;;
30380;SDS011;17169;50.966;11.038;2022-12-07T03:11:40;7.88;;;5.38;;
30380;SDS011;17169;50.966;11.038;2022-12-07T03:14:49;7.53;;;5.50;;
30380;SDS011;17169;50.966;11.038;2022-12-07T03:18:01;7.45;;;4.93;;
30380;SDS011;17169;50.966;11.038;2022-12-07T03:21:06;10.18;;;5.45;;
30380;SDS011;17169;50.966;11.038;2022-12-07T03:24:16;9.43;;;5.53;;
30380;SDS011;17169;50.966;11.038;2022-12-07T03:27:21;8.00;;;5.00;;
30380;SDS011;17169;50.966;11.038;2022-12-07T03:30:27;13.82;;;6.13;;
30380;SDS011;17169;50.966;11.038;2022-12-07T03:36:39;7.60;;;4.80;;
30380;SDS011;17169;50.966;11.038;2022-12-07T03:39:49;8.57;;;5.45;;
30380;SDS011;17169;50.966;11.038;2022-12-07T03:42:59;9.90;;;6.32;;
30380;SDS011;17169;50.966;11.038;2022-12-07T03:46:06;10.00;;;6.15;;
30380;SDS011;17169;50.966;11.038;2022-12-07T03:55:30;10.07;;;6.00;;
30380;SDS011;17169;50.966;11.038;2022-12-07T03:58:36;12.80;;;6.18;;
30380;SDS011;17169;50.966;11.038;2022-12-07T04:01:41;11.93;;;6.85;;
30380;SDS011;17169;50.966;11.038;2022-12-07T04:04:45;10.93;;;6.70;;
30380;SDS011;17169;50.966;11.038;2022-12-07T04:07:47;12.60;;;6.47;;
30380;SDS011;17169;50.966;11.038;2022-12-07T04:10:50;10.40;;;6.63;;
30380;SDS011;17169;50.966;11.038;2022-12-07T04:13:52;9.25;;;6.28;;
30380;SDS011;17169;50.966;11.038;2022-12-07T04:17:12;10.75;;;6.35;;
30380;SDS011;17169;50.966;11.038;2022-12-07T04:20:16;9.82;;;6.40;;
30380;SDS011;17169;50.966;11.038;2022-12-07T04:23:18;9.32;;;5.47;;
30380;SDS011;17169;50.966;11.038;2022-12-07T04:26:21;9.05;;;5.75;;
30380;SDS011;17169;50.966;11.038;2022-12-07T04:29:23;8.40;;;5.68;;
30380;SDS011;17169;50.966;11.038;2022-12-07T04:32:26;10.05;;;6.20;;
30380;SDS011;17169;50.966;11.038;2022-12-07T04:35:30;9.23;;;6.18;;
30380;SDS011;17169;50.966;11.038;2022-12-07T04:38:32;7.75;;;5.30;;
30380;SDS011;17169;50.966;11.038;2022-12-07T04:41:35;8.43;;;5.50;;
30380;SDS011;17169;50.966;11.038;2022-12-07T04:44:37;8.77;;;5.07;;
30380;SDS011;17169;50.966;11.038;2022-12-07T04:47:39;8.43;;;5.40;;
30380;SDS011;17169;50.966;11.038;2022-12-07T04:50:43;8.40;;;5.07;;
30380;SDS011;17169;50.966;11.038;2022-12-07T04:53:45;8.40;;;5.45;;
30380;SDS011;17169;50.966;11.038;2022-12-07T04:56:48;9.18;;;5.13;;
30380;SDS011;17169;50.966;11.038;2022-12-07T04:59:50;8.20;;;5.63;;
30380;SDS011;17169;50.966;11.038;2022-12-07T05:02:53;10.07;;;6.43;;
30380;SDS011;17169;50.966;11.038;2022-12-07T05:05:56;11.40;;;6.57;;
30380;SDS011;17169;50.966;11.038;2022-12-07T05:08:59;10.70;;;7.22;;
30380;SDS011;17169;50.966;11.038;2022-12-07T05:12:01;10.98;;;6.80;;
30380;SDS011;17169;50.966;11.038;2022-12-07T05:15:04;11.13;;;7.38;;
30380;SDS011;17169;50.966;11.038;2022-12-07T05:18:07;13.52;;;7.80;;
30380;SDS011;17169;50.966;11.038;2022-12-07T05:21:10;16.30;;;7.78;;
30380;SDS011;17169;50.966;11.038;2022-12-07T05:24:13;12.75;;;7.82;;
30380;SDS011;17169;50.966;11.038;2022-12-07T05:27:17;12.52;;;7.78;;
30380;SDS011;17169;50.966;11.038;2022-12-07T05:30:19;14.27;;;9.32;;
30380;SDS011;17169;50.966;11.038;2022-12-07T05:33:21;11.48;;;7.50;;
30380;SDS011;17169;50.966;11.038;2022-12-07T05:36:25;14.57;;;8.55;;
30380;SDS011;17169;50.966;11.038;2022-12-07T05:39:29;13.30;;;7.90;;
30380;SDS011;17169;50.966;11.038;2022-12-07T05:42:31;15.82;;;9.50;;
30380;SDS011;17169;50.966;11.038;2022-12-07T05:45:33;13.77;;;8.73;;
30380;SDS011;17169;50.966;11.038;2022-12-07T05:48:36;15.90;;;8.88;;
30380;SDS011;17169;50.966;11.038;2022-12-07T05:51:40;13.70;;;8.52;;
30380;SDS011;17169;50.966;11.038;2022-12-07T05:54:43;15.80;;;9.20;;
30380;SDS011;17169;50.966;11.038;2022-12-07T05:57:45;14.98;;;9.13;;
30380;SDS011;17169;50.966;11.038;2022-12-07T06:01:01;14.68;;;9.48;;
30380;SDS011;17169;50.966;11.038;2022-12-07T06:04:04;14.00;;;9.30;;
30380;SDS011;17169;50.966;11.038;2022-12-07T06:07:08;16.60;;;9.43;;
30380;SDS011;17169;50.966;11.038;2022-12-07T06:10:10;18.02;;;9.55;;
30380;SDS011;17169;50.966;11.038;2022-12-07T06:13:13;16.10;;;9.90;;
30380;SDS011;17169;50.966;11.038;2022-12-07T06:16:14;13.63;;;9.00;;
30380;SDS011;17169;50.966;11.038;2022-12-07T06:19:16;15.35;;;9.27;;
30380;SDS011;17169;50.966;11.038;2022-12-07T06:22:20;16.27;;;10.07;;
30380;SDS011;17169;50.966;11.038;2022-12-07T06:25:22;16.55;;;10.30;;
30380;SDS011;17169;50.966;11.038;2022-12-07T06:28:25;15.18;;;9.50;;
30380;SDS011;17169;50.966;11.038;2022-12-07T06:31:27;15.57;;;9.52;;
30380;SDS011;17169;50.966;11.038;2022-12-07T06:34:29;18.02;;;9.85;;
30380;SDS011;17169;50.966;11.038;2022-12-07T06:37:33;12.98;;;9.05;;
30380;SDS011;17169;50.966;11.038;2022-12-07T06:40:36;14.15;;;8.88;;
30380;SDS011;17169;50.966;11.038;2022-12-07T06:43:38;18.95;;;9.10;;
30380;SDS011;17169;50.966;11.038;2022-12-07T06:46:40;14.75;;;9.27;;
30380;SDS011;17169;50.966;11.038;2022-12-07T06:49:43;14.60;;;9.15;;
30380;SDS011;17169;50.966;11.038;2022-12-07T06:52:46;16.27;;;8.90;;
30380;SDS011;17169;50.966;11.038;2022-12-07T06:55:49;14.73;;;9.20;;
30380;SDS011;17169;50.966;11.038;2022-12-07T06:58:51;14.90;;;8.40;;
30380;SDS011;17169;50.966;11.038;2022-12-07T07:01:54;15.98;;;9.48;;
30380;SDS011;17169;50.966;11.038;2022-12-07T07:04:56;14.43;;;8.20;;
30380;SDS011;17169;50.966;11.038;2022-12-07T07:08:00;14.73;;;9.27;;
30380;SDS011;17169;50.966;11.038;2022-12-07T07:11:03;17.45;;;9.60;;
30380;SDS011;17169;50.966;11.038;2022-12-07T07:14:06;15.75;;;8.98;;
30380;SDS011;17169;50.966;11.038;2022-12-07T07:17:08;16.27;;;9.27;;
30380;SDS011;17169;50.966;11.038;2022-12-07T07:20:11;17.30;;;8.45;;
30380;SDS011;17169;50.966;11.038;2022-12-07T07:23:15;15.88;;;9.20;;
30380;SDS011;17169;50.966;11.038;2022-12-07T07:26:17;19.58;;;10.32;;
30380;SDS011;17169;50.966;11.038;2022-12-07T07:29:20;16.70;;;9.57;;
30380;SDS011;17169;50.966;11.038;2022-12-07T07:32:22;14.98;;;9.52;;
30380;SDS011;17169;50.966;11.038;2022-12-07T07:35:25;15.05;;;10.00;;
30380;SDS011;17169;50.966;11.038;2022-12-07T07:38:29;14.85;;;9.25;;
30380;SDS011;17169;50.966;11.038;2022-12-07T07:41:31;14.68;;;9.18;;
30380;SDS011;17169;50.966;11.038;2022-12-07T07:44:33;15.70;;;10.07;;
30380;SDS011;17169;50.966;11.038;2022-12-07T07:47:36;13.35;;;8.27;;
30380;SDS011;17169;50.966;11.038;2022-12-07T07:50:38;13.90;;;8.45;;
30380;SDS011;17169;50.966;11.038;2022-12-07T07:53:42;14.48;;;9.07;;
30380;SDS011;17169;50.966;11.038;2022-12-07T07:56:44;13.60;;;8.65;;
30380;SDS011;17169;50.966;11.038;2022-12-07T07:59:46;14.95;;;9.02;;
30380;SDS011;17169;50.966;11.038;2022-12-07T08:02:49;14.95;;;8.93;;
30380;SDS011;17169;50.966;11.038;2022-12-07T08:05:51;14.95;;;8.98;;
30380;SDS011;17169;50.966;11.038;2022-12-07T08:08:55;15.48;;;8.95;;
30380;SDS011;17169;50.966;11.038;2022-12-07T08:11:58;13.68;;;8.35;;
30380;SDS011;17169;50.966;11.038;2022-12-07T08:15:01;14.27;;;8.90;;
30380;SDS011;17169;50.966;11.038;2022-12-07T08:18:03;14.23;;;8.80;;
30380;SDS011;17169;50.966;11.038;2022-12-07T08:21:06;16.10;;;8.30;;
30380;SDS011;17169;50.966;11.038;2022-12-07T08:24:12;15.40;;;9.25;;
30380;SDS011;17169;50.966;11.038;2022-12-07T08:27:14;17.58;;;8.90;;
30380;SDS011;17169;50.966;11.038;2022-12-07T08:30:17;18.20;;;8.55;;
30380;SDS011;17169;50.966;11.038;2022-12-07T08:33:19;13.82;;;8.60;;
30380;SDS011;17169;50.966;11.038;2022-12-07T08:36:23;15.90;;;8.68;;
30380;SDS011;17169;50.966;11.038;2022-12-07T08:39:27;14.43;;;8.57;;
30380;SDS011;17169;50.966;11.038;2022-12-07T08:42:29;10.38;;;6.93;;
30380;SDS011;17169;50.966;11.038;2022-12-07T08:45:38;14.80;;;6.95;;
30380;SDS011;17169;50.966;11.038;2022-12-07T08:48:43;12.75;;;7.43;;
30380;SDS011;17169;50.966;11.038;2022-12-07T08:51:48;12.95;;;7.10;;
30380;SDS011;17169;50.966;11.038;2022-12-07T08:54:52;12.43;;;6.55;;
30380;SDS011;17169;50.966;11.038;2022-12-07T08:57:55;11.45;;;5.65;;
30380;SDS011;17169;50.966;11.038;2022-12-07T09:00:59;12.32;;;6.32;;
30380;SDS011;17169;50.966;11.038;2022-12-07T09:04:01;10.95;;;5.72;;
30380;SDS011;17169;50.966;11.038;2022-12-07T09:07:03;10.75;;;5.20;;
30380;SDS011;17169;50.966;11.038;2022-12-07T09:10:08;7.88;;;4.63;;
30380;SDS011;17169;50.966;11.038;2022-12-07T09:13:11;13.27;;;4.97;;
30380;SDS011;17169;50.966;11.038;2022-12-07T09:16:13;11.68;;;5.07;;
30380;SDS011;17169;50.966;11.038;2022-12-07T09:19:16;9.18;;;4.57;;
30380;SDS011;17169;50.966;11.038;2022-12-07T09:22:18;9.65;;;4.50;;
30380;SDS011;17169;50.966;11.038;2022-12-07T09:25:22;9.70;;;4.22;;
30380;SDS011;17169;50.966;11.038;2022-12-07T09:28:24;8.35;;;4.40;;
30380;SDS011;17169;50.966;11.038;2022-12-07T09:31:26;9.52;;;4.20;;
30380;SDS011;17169;50.966;11.038;2022-12-07T09:34:30;9.75;;;4.20;;
30380;SDS011;17169;50.966;11.038;2022-12-07T09:37:32;11.20;;;4.38;;
30380;SDS011;17169;50.966;11.038;2022-12-07T09:40:38;8.43;;;5.20;;
30380;SDS011;17169;50.966;11.038;2022-12-07T09:43:40;9.07;;;3.73;;
30380;SDS011;17169;50.966;11.038;2022-12-07T09:46:43;9.85;;;4.10;;
30380;SDS011;17169;50.966;11.038;2022-12-07T09:49:47;10.43;;;4.35;;
30380;SDS011;17169;50.966;11.038;2022-12-07T09:52:50;6.70;;;4.03;;
30380;SDS011;17169;50.966;11.038;2022-12-07T09:55:55;9.18;;;4.13;;
30380;SDS011;17169;50.966;11.038;2022-12-07T09:58:58;11.13;;;3.95;;
30380;SDS011;17169;50.966;11.038;2022-12-07T10:02:19;7.72;;;4.00;;
30380;SDS011;17169;50.966;11.038;2022-12-07T10:05:27;12.63;;;4.60;;
30380;SDS011;17169;50.966;11.038;2022-12-07T10:08:33;12.93;;;4.35;;
30380;SDS011;17169;50.966;11.038;2022-12-07T10:11:41;14.23;;;4.53;;
30380;SDS011;17169;50.966;11.038;2022-12-07T10:15:00;11.75;;;4.80;;
30380;SDS011;17169;50.966;11.038;2022-12-07T10:18:13;10.05;;;3.85;;
30380;SDS011;17169;50.966;11.038;2022-12-07T10:21:20;8.00;;;4.00;;
30380;SDS011;17169;50.966;11.038;2022-12-07T10:24:25;10.23;;;4.10;;
30380;SDS011;17169;50.966;11.038;2022-12-07T10:27:29;9.35;;;5.18;;
30380;SDS011;17169;50.966;11.038;2022-12-07T10:30:33;9.35;;;3.28;;
30380;SDS011;17169;50.966;11.038;2022-12-07T10:33:52;6.07;;;3.00;;
30380;SDS011;17169;50.966;11.038;2022-12-07T10:37:13;7.22;;;3.65;;
30380;SDS011;17169;50.966;11.038;2022-12-07T10:40:26;6.25;;;3.30;;
30380;SDS011;17169;50.966;11.038;2022-12-07T10:43:32;8.38;;;3.97;;
30380;SDS011;17169;50.966;11.038;2022-12-07T10:46:46;6.63;;;3.45;;
30380;SDS011;17169;50.966;11.038;2022-12-07T10:50:17;7.65;;;3.28;;
30380;SDS011;17169;50.966;11.038;2022-12-07T10:53:40;7.00;;;2.97;;
30380;SDS011;17169;50.966;11.038;2022-12-07T11:00:08;4.75;;;2.50;;
30380;SDS011;17169;50.966;11.038;2022-12-07T11:03:21;8.75;;;3.00;;
30380;SDS011;17169;50.966;11.038;2022-12-07T11:09:44;4.68;;;2.28;;
30380;SDS011;17169;50.966;11.038;2022-12-07T11:12:57;8.32;;;2.88;;
30380;SDS011;17169;50.966;11.038;2022-12-07T11:23:03;5.00;;;2.35;;
30380;SDS011;17169;50.966;11.038;2022-12-07T11:26:14;7.13;;;2.95;;
30380;SDS011;17169;50.966;11.038;2022-12-07T11:29:40;9.10;;;3.50;;
30380;SDS011;17169;50.966;11.038;2022-12-07T11:36:09;4.15;;;2.50;;
30380;SDS011;17169;50.966;11.038;2022-12-07T11:39:22;5.63;;;2.65;;
30380;SDS011;17169;50.966;11.038;2022-12-07T11:42:29;9.27;;;2.42;;
30380;SDS011;17169;50.966;11.038;2022-12-07T11:45:37;11.38;;;2.80;;
30380;SDS011;17169;50.966;11.038;2022-12-07T11:48:46;8.20;;;2.95;;
30380;SDS011;17169;50.966;11.038;2022-12-07T11:51:53;6.35;;;2.72;;
30380;SDS011;17169;50.966;11.038;2022-12-07T11:54:59;5.78;;;2.97;;
30380;SDS011;17169;50.966;11.038;2022-12-07T11:58:06;6.82;;;2.65;;
30380;SDS011;17169;50.966;11.038;2022-12-07T12:01:31;5.93;;;2.03;;
30380;SDS011;17169;50.966;11.038;2022-12-07T12:04:49;10.35;;;2.15;;
30380;SDS011;17169;50.966;11.038;2022-12-07T12:07:59;7.03;;;1.98;;
30380;SDS011;17169;50.966;11.038;2022-12-07T12:11:10;6.20;;;2.03;;
30380;SDS011;17169;50.966;11.038;2022-12-07T12:14:32;5.97;;;2.35;;
30380;SDS011;17169;50.966;11.038;2022-12-07T12:21:25;7.18;;;2.20;;
30380;SDS011;17169;50.966;11.038;2022-12-07T12:24:30;3.72;;;2.10;;
30380;SDS011;17169;50.966;11.038;2022-12-07T12:27:37;6.82;;;2.25;;
30380;SDS011;17169;50.966;11.038;2022-12-07T12:30:41;4.90;;;2.05;;
30380;SDS011;17169;50.966;11.038;2022-12-07T12:33:44;9.45;;;2.50;;
30380;SDS011;17169;50.966;11.038;2022-12-07T12:36:50;5.05;;;2.20;;
30380;SDS011;17169;50.966;11.038;2022-12-07T12:47:01;6.13;;;1.70;;
30380;SDS011;17169;50.966;11.038;2022-12-07T12:53:34;3.17;;;1.70;;
30380;SDS011;17169;50.966;11.038;2022-12-07T12:56:38;4.07;;;2.00;;
30380;SDS011;17169;50.966;11.038;2022-12-07T12:59:45;2.50;;;1.50;;
30380;SDS011;17169;50.966;11.038;2022-12-07T13:02:58;6.00;;;1.80;;
30380;SDS011;17169;50.966;11.038;2022-12-07T13:06:29;4.85;;;1.55;;
30380;SDS011;17169;50.966;11.038;2022-12-07T13:09:37;2.97;;;1.58;;
30380;SDS011;17169;50.966;11.038;2022-12-07T13:12:54;4.00;;;1.63;;
30380;SDS011;17169;50.966;11.038;2022-12-07T13:23:03;4.82;;;1.80;;
30380;SDS011;17169;50.966;11.038;2022-12-07T13:26:12;6.20;;;2.70;;
30380;SDS011;17169;50.966;11.038;2022-12-07T13:29:17;5.07;;;1.88;;
30380;SDS011;17169;50.966;11.038;2022-12-07T13:32:22;5.78;;;2.58;;
30380;SDS011;17169;50.966;11.038;2022-12-07T13:35:36;5.80;;;1.80;;
30380;SDS011;17169;50.966;11.038;2022-12-07T13:38:39;4.78;;;1.95;;
30380;SDS011;17169;50.966;11.038;2022-12-07T13:41:52;8.80;;;2.30;;
30380;SDS011;17169;50.966;11.038;2022-12-07T13:44:58;2.28;;;1.35;;
30380;SDS011;17169;50.966;11.038;2022-12-07T13:48:01;4.97;;;1.40;;
30380;SDS011;17169;50.966;11.038;2022-12-07T13:51:05;5.22;;;1.90;;
30380;SDS011;17169;50.966;11.038;2022-12-07T13:54:18;6.80;;;2.00;;
30380;SDS011;17169;50.966;11.038;2022-12-07T13:57:22;3.88;;;1.58;;
30380;SDS011;17169;50.966;11.038;2022-12-07T14:00:27;4.30;;;1.50;;
30380;SDS011;17169;50.966;11.038;2022-12-07T14:03:32;3.15;;;1.60;;
30380;SDS011;17169;50.966;11.038;2022-12-07T14:06:36;6.00;;;1.50;;
30380;SDS011;17169;50.966;11.038;2022-12-07T14:09:53;5.93;;;1.60;;
30380;SDS011;17169;50.966;11.038;2022-12-07T14:12:58;6.35;;;1.73;;
30380;SDS011;17169;50.966;11.038;2022-12-07T14:16:02;3.78;;;1.75;;
30380;SDS011;17169;50.966;11.038;2022-12-07T14:19:39;5.82;;;2.00;;
30380;SDS011;17169;50.966;11.038;2022-12-07T14:22:53;4.90;;;2.28;;
30380;SDS011;17169;50.966;11.038;2022-12-07T14:26:04;11.95;;;2.85;;
30380;SDS011;17169;50.966;11.038;2022-12-07T14:32:35;5.53;;;2.25;;
30380;SDS011;17169;50.966;11.038;2022-12-07T14:35:38;8.05;;;2.33;;
30380;SDS011;17169;50.966;11.038;2022-12-07T14:38:41;4.75;;;2.03;;
30380;SDS011;17169;50.966;11.038;2022-12-07T14:41:43;4.85;;;1.70;;
30380;SDS011;17169;50.966;11.038;2022-12-07T14:44:56;5.03;;;1.80;;
30380;SDS011;17169;50.966;11.038;2022-12-07T14:47:59;5.57;;;2.28;;
30380;SDS011;17169;50.966;11.038;2022-12-07T14:51:01;5.35;;;1.98;;
30380;SDS011;17169;50.966;11.038;2022-12-07T14:54:05;4.78;;;2.20;;
30380;SDS011;17169;50.966;11.038;2022-12-07T14:57:08;5.00;;;1.92;;
30380;SDS011;17169;50.966;11.038;2022-12-07T15:00:16;3.53;;;2.08;;
30380;SDS011;17169;50.966;11.038;2022-12-07T15:03:20;4.57;;;1.70;;
30380;SDS011;17169;50.966;11.038;2022-12-07T15:06:22;6.18;;;1.70;;
30380;SDS011;17169;50.966;11.038;2022-12-07T15:09:25;3.88;;;1.85;;
30380;SDS011;17169;50.966;11.038;2022-12-07T15:12:27;5.30;;;2.28;;
30380;SDS011;17169;50.966;11.038;2022-12-07T15:15:31;4.15;;;2.25;;
30380;SDS011;17169;50.966;11.038;2022-12-07T15:18:33;4.30;;;2.10;;
30380;SDS011;17169;50.966;11.038;2022-12-07T15:21:36;6.43;;;2.00;;
30380;SDS011;17169;50.966;11.038;2022-12-07T15:24:38;5.53;;;2.17;;
30380;SDS011;17169;50.966;11.038;2022-12-07T15:27:40;5.05;;;2.40;;
30380;SDS011;17169;50.966;11.038;2022-12-07T15:30:44;7.63;;;2.58;;
30380;SDS011;17169;50.966;11.038;2022-12-07T15:33:47;4.60;;;2.30;;
30380;SDS011;17169;50.966;11.038;2022-12-07T15:36:49;5.93;;;2.58;;
30380;SDS011;17169;50.966;11.038;2022-12-07T15:39:51;5.43;;;2.50;;
30380;SDS011;17169;50.966;11.038;2022-12-07T15:42:54;5.38;;;2.20;;
30380;SDS011;17169;50.966;11.038;2022-12-07T15:45:57;7.70;;;1.92;;
30380;SDS011;17169;50.966;11.038;2022-12-07T15:49:00;4.28;;;2.30;;
30380;SDS011;17169;50.966;11.038;2022-12-07T15:52:02;10.15;;;2.20;;
30380;SDS011;17169;50.966;11.038;2022-12-07T15:55:05;5.47;;;2.33;;
30380;SDS011;17169;50.966;11.038;2022-12-07T15:58:08;4.50;;;2.22;;
30380;SDS011;17169;50.966;11.038;2022-12-07T16:01:12;6.68;;;2.50;;
30380;SDS011;17169;50.966;11.038;2022-12-07T16:04:15;4.40;;;2.15;;
30380;SDS011;17169;50.966;11.038;2022-12-07T16:07:17;10.75;;;2.20;;
30380;SDS011;17169;50.966;11.038;2022-12-07T16:10:20;4.63;;;2.15;;
30380;SDS011;17169;50.966;11.038;2022-12-07T16:13:22;9.15;;;2.22;;
30380;SDS011;17169;50.966;11.038;2022-12-07T16:16:26;9.38;;;2.33;;
30380;SDS011;17169;50.966;11.038;2022-12-07T16:19:29;7.43;;;2.35;;
30380;SDS011;17169;50.966;11.038;2022-12-07T16:22:31;7.93;;;2.60;;
30380;SDS011;17169;50.966;11.038;2022-12-07T16:25:34;4.43;;;2.50;;
30380;SDS011;17169;50.966;11.038;2022-12-07T16:28:36;8.32;;;2.70;;
30380;SDS011;17169;50.966;11.038;2022-12-07T16:31:40;7.82;;;2.78;;
30380;SDS011;17169;50.966;11.038;2022-12-07T16:34:42;7.60;;;2.40;;
30380;SDS011;17169;50.966;11.038;2022-12-07T16:37:45;6.22;;;2.47;;
30380;SDS011;17169;50.966;11.038;2022-12-07T16:40:47;4.82;;;2.25;;
30380;SDS011;17169;50.966;11.038;2022-12-07T16:43:49;5.65;;;2.70;;
30380;SDS011;17169;50.966;11.038;2022-12-07T16:46:53;5.88;;;2.85;;
30380;SDS011;17169;50.966;11.038;2022-12-07T16:49:56;6.00;;;2.35;;
30380;SDS011;17169;50.966;11.038;2022-12-07T16:52:58;6.30;;;3.13;;
30380;SDS011;17169;50.966;11.038;2022-12-07T16:56:00;5.13;;;2.72;;
30380;SDS011;17169;50.966;11.038;2022-12-07T16:59:03;4.70;;;2.50;;
30380;SDS011;17169;50.966;11.038;2022-12-07T17:02:07;7.57;;;2.63;;
30380;SDS011;17169;50.966;11.038;2022-12-07T17:05:10;6.93;;;2.45;;
30380;SDS011;17169;50.966;11.038;2022-12-07T17:08:13;5.80;;;2.10;;
30380;SDS011;17169;50.966;11.038;2022-12-07T17:11:16;5.60;;;2.63;;
30380;SDS011;17169;50.966;11.038;2022-12-07T17:14:20;5.78;;;2.92;;
30380;SDS011;17169;50.966;11.038;2022-12-07T17:17:41;7.18;;;2.53;;
30380;SDS011;17169;50.966;11.038;2022-12-07T17:20:43;7.18;;;3.08;;
30380;SDS011;17169;50.966;11.038;2022-12-07T17:23:45;5.53;;;2.38;;
30380;SDS011;17169;50.966;11.038;2022-12-07T17:26:48;5.05;;;2.22;;
30380;SDS011;17169;50.966;11.038;2022-12-07T17:29:51;10.57;;;3.22;;
30380;SDS011;17169;50.966;11.038;2022-12-07T17:32:54;5.72;;;2.50;;
30380;SDS011;17169;50.966;11.038;2022-12-07T17:35:57;5.18;;;2.30;;
30380;SDS011;17169;50.966;11.038;2022-12-07T17:38:59;10.65;;;2.78;;
30380;SDS011;17169;50.966;11.038;2022-12-07T17:42:03;7.32;;;2.72;;
30380;SDS011;17169;50.966;11.038;2022-12-07T17:45:23;6.57;;;3.17;;
30380;SDS011;17169;50.966;11.038;2022-12-07T17:48:26;9.05;;;3.08;;
30380;SDS011;17169;50.966;11.038;2022-12-07T17:51:29;6.05;;;2.90;;
30380;SDS011;17169;50.966;11.038;2022-12-07T17:54:49;4.70;;;2.80;;
30380;SDS011;17169;50.966;11.038;2022-12-07T17:57:51;5.13;;;3.17;;
30380;SDS011;17169;50.966;11.038;2022-12-07T18:00:54;7.47;;;3.50;;
30380;SDS011;17169;50.966;11.038;2022-12-07T18:03:57;8.52;;;3.30;;
30380;SDS011;17169;50.966;11.038;2022-12-07T18:07:00;10.10;;;3.85;;
30380;SDS011;17169;50.966;11.038;2022-12-07T18:10:05;7.25;;;3.35;;
30380;SDS011;17169;50.966;11.038;2022-12-07T18:13:08;8.15;;;3.25;;
30380;SDS011;17169;50.966;11.038;2022-12-07T18:16:28;7.10;;;3.45;;
30380;SDS011;17169;50.966;11.038;2022-12-07T18:19:33;10.82;;;3.65;;
30380;SDS011;17169;50.966;11.038;2022-12-07T18:22:36;10.00;;;3.97;;
30380;SDS011;17169;50.966;11.038;2022-12-07T18:25:39;5.82;;;3.28;;
30380;SDS011;17169;50.966;11.038;2022-12-07T18:28:43;8.00;;;3.47;;
30380;SDS011;17169;50.966;11.038;2022-12-07T18:31:46;5.55;;;3.28;;
30380;SDS011;17169;50.966;11.038;2022-12-07T18:34:50;7.10;;;3.70;;
30380;SDS011;17169;50.966;11.038;2022-12-07T18:37:53;11.10;;;3.75;;
30380;SDS011;17169;50.966;11.038;2022-12-07T18:40:56;5.25;;;3.40;;
30380;SDS011;17169;50.966;11.038;2022-12-07T18:43:58;14.77;;;4.78;;
30380;SDS011;17169;50.966;11.038;2022-12-07T18:47:01;9.98;;;4.40;;
30380;SDS011;17169;50.966;11.038;2022-12-07T18:50:05;9.73;;;4.53;;
30380;SDS011;17169;50.966;11.038;2022-12-07T18:53:08;8.13;;;3.03;;
30380;SDS011;17169;50.966;11.038;2022-12-07T18:56:11;6.57;;;3.10;;
30380;SDS011;17169;50.966;11.038;2022-12-07T18:59:15;7.32;;;2.67;;
30380;SDS011;17169;50.966;11.038;2022-12-07T19:02:34;6.95;;;2.63;;
30380;SDS011;17169;50.966;11.038;2022-12-07T19:05:38;7.43;;;2.80;;
30380;SDS011;17169;50.966;11.038;2022-12-07T19:08:40;6.07;;;2.80;;
30380;SDS011;17169;50.966;11.038;2022-12-07T19:11:43;8.45;;;2.90;;